Italic G — IBYH — position and weather

sailwx.info

Track history (hours):
 
Tides and Currents Weather Stations Pressure Air Temp Water Temp Dewpoint Dewpoint Depression Visibility Wind Speed Wind Dir Waves Ship Positions

Italic G

Last reported at 2017-Feb-19 08:25 UTC. Time now 2017-Feb-20 08:54 UTC.
Position N 36°55' W 075°55'.

Length 229 m; draft 14.2 m.

Type: Cargo ship. MMSI: 247282300.

Date/timePositionNaut miles runAvg speedWind from/ knotsBaromVisibWave heightAir tempDewpointWater temp
2017-Feb-19 08:25N 36°55' W 075°55'8 8.1
2017-Feb-19 07:25N 37°01' W 076°02'57 9.1
2017-Feb-19 01:10N 37°57' W 076°10'5211.3
2017-Feb-18 20:33N 38°48' W 076°25'1211.6
2017-Feb-18 19:33N 38°60' W 076°23'8 8.4
2017-Feb-18 18:33N 39°08' W 076°24'8 8.1
2017-Feb-18 17:33N 39°13' W 076°32'3 2.5
2017-Feb-18 16:33N 39°15' W 076°34'0 0.0
2017-Feb-18 15:33N 39°15' W 076°34'0 0.0
2017-Feb-18 14:33N 39°15' W 076°34'0 0.0
2017-Feb-18 13:33N 39°15' W 076°34'0 0.0
2017-Feb-18 12:33N 39°15' W 076°34'0 0.0
2017-Feb-18 11:33N 39°15' W 076°34'0 0.0
2017-Feb-18 10:33N 39°15' W 076°34'0 0.0
2017-Feb-18 09:33N 39°15' W 076°34'0 0.0
2017-Feb-18 08:33N 39°15' W 076°34'0 0.0
2017-Feb-18 07:33N 39°15' W 076°34'0 0.0
2017-Feb-18 06:33N 39°15' W 076°34'0 0.0
2017-Feb-18 05:33N 39°15' W 076°34'0 0.0
2017-Feb-18 04:33N 39°15' W 076°34'0 0.0
2017-Feb-18 03:33N 39°15' W 076°34'0 0.0
2017-Feb-18 02:30N 39°15' W 076°34'0 0.0
2017-Feb-18 01:33N 39°15' W 076°34'0 0.0
2017-Feb-18 00:33N 39°15' W 076°34'0 0.0
2017-Feb-17 23:33N 39°15' W 076°34'0 0.0
2017-Feb-17 22:33N 39°15' W 076°34'0 0.0
2017-Feb-17 21:33N 39°15' W 076°34'0 0.0
2017-Feb-17 20:33N 39°15' W 076°34'0 0.0
2017-Feb-17 19:30N 39°15' W 076°34'0 0.0
2017-Feb-17 18:33N 39°15' W 076°34'0 0.0
2017-Feb-17 17:33N 39°15' W 076°34'0 0.0
2017-Feb-17 16:33N 39°15' W 076°34'0 0.0
2017-Feb-17 15:33N 39°15' W 076°34'0 0.0
2017-Feb-17 14:33N 39°15' W 076°34'0 0.0
2017-Feb-17 13:33N 39°15' W 076°34'0 0.0
2017-Feb-17 12:33N 39°15' W 076°34'0 0.0
2017-Feb-17 11:33N 39°15' W 076°34'3 3.0
2017-Feb-17 10:34N 39°13' W 076°32'7 7.3
2017-Feb-17 09:33N 39°08' W 076°24'9 9.5
2017-Feb-17 08:34N 38°59' W 076°23'4 4.0
2017-Feb-17 07:31N 38°55' W 076°25'0 0.0
2017-Feb-17 05:07N 38°55' W 076°24'0 0.0
2017-Feb-17 04:31N 38°55' W 076°24'0 0.1
2017-Feb-17 03:31N 38°55' W 076°25'5711.3
2017-Feb-16 22:32N 37°59' W 076°12'5111.6
2017-Feb-16 18:08N 37°09' W 076°09'812.5
2017-Feb-16 17:29N 37°02' W 076°03'9 9.3
2017-Feb-16 16:34N 36°57' W 075°55'  
Track history (hours):
 
Tides and Currents Weather Stations Pressure Air Temp Water Temp Dewpoint Dewpoint Depression Visibility Wind Speed Wind Dir Waves Ship Positions

Italic G

Last reported at 2017-Feb-19 08:25 UTC. Time now 2017-Feb-20 08:54 UTC.
Position N 36°55' W 075°55'.

Length 229 m; draft 14.2 m.

Type: Cargo ship. MMSI: 247282300.

Date/timePositionNaut miles runAvg speedWind from/ knotsBaromVisibWave heightAir tempDewpointWater temp
2017-Feb-19 08:25N 36°55' W 075°55'8 8.1
2017-Feb-19 07:25N 37°01' W 076°02'57 9.1
2017-Feb-19 01:10N 37°57' W 076°10'5211.3
2017-Feb-18 20:33N 38°48' W 076°25'1211.6
2017-Feb-18 19:33N 38°60' W 076°23'8 8.4
2017-Feb-18 18:33N 39°08' W 076°24'8 8.1
2017-Feb-18 17:33N 39°13' W 076°32'3 2.5
2017-Feb-18 16:33N 39°15' W 076°34'0 0.0
2017-Feb-18 15:33N 39°15' W 076°34'0 0.0
2017-Feb-18 14:33N 39°15' W 076°34'0 0.0
2017-Feb-18 13:33N 39°15' W 076°34'0 0.0
2017-Feb-18 12:33N 39°15' W 076°34'0 0.0
2017-Feb-18 11:33N 39°15' W 076°34'0 0.0
2017-Feb-18 10:33N 39°15' W 076°34'0 0.0
2017-Feb-18 09:33N 39°15' W 076°34'0 0.0
2017-Feb-18 08:33N 39°15' W 076°34'0 0.0
2017-Feb-18 07:33N 39°15' W 076°34'0 0.0
2017-Feb-18 06:33N 39°15' W 076°34'0 0.0
2017-Feb-18 05:33N 39°15' W 076°34'0 0.0
2017-Feb-18 04:33N 39°15' W 076°34'0 0.0
2017-Feb-18 03:33N 39°15' W 076°34'0 0.0
2017-Feb-18 02:30N 39°15' W 076°34'0 0.0
2017-Feb-18 01:33N 39°15' W 076°34'0 0.0
2017-Feb-18 00:33N 39°15' W 076°34'0 0.0
2017-Feb-17 23:33N 39°15' W 076°34'0 0.0
2017-Feb-17 22:33N 39°15' W 076°34'0 0.0
2017-Feb-17 21:33N 39°15' W 076°34'0 0.0
2017-Feb-17 20:33N 39°15' W 076°34'0 0.0
2017-Feb-17 19:30N 39°15' W 076°34'0 0.0
2017-Feb-17 18:33N 39°15' W 076°34'0 0.0
2017-Feb-17 17:33N 39°15' W 076°34'0 0.0
2017-Feb-17 16:33N 39°15' W 076°34'0 0.0
2017-Feb-17 15:33N 39°15' W 076°34'0 0.0
2017-Feb-17 14:33N 39°15' W 076°34'0 0.0
2017-Feb-17 13:33N 39°15' W 076°34'0 0.0
2017-Feb-17 12:33N 39°15' W 076°34'0 0.0
2017-Feb-17 11:33N 39°15' W 076°34'3 3.0
2017-Feb-17 10:34N 39°13' W 076°32'7 7.3
2017-Feb-17 09:33N 39°08' W 076°24'9 9.5
2017-Feb-17 08:34N 38°59' W 076°23'4 4.0
2017-Feb-17 07:31N 38°55' W 076°25'0 0.0
2017-Feb-17 05:07N 38°55' W 076°24'0 0.0
2017-Feb-17 04:31N 38°55' W 076°24'0 0.1
2017-Feb-17 03:31N 38°55' W 076°25'5711.3
2017-Feb-16 22:32N 37°59' W 076°12'5111.6
2017-Feb-16 18:08N 37°09' W 076°09'812.5
2017-Feb-16 17:29N 37°02' W 076°03'9 9.3
2017-Feb-16 16:34N 36°57' W 075°55'  

Dump ship's entire track history